Flight Track Log - Related Links

Times and Time Zones

All times are in EDT time to prevent confusion due to time zone crossing. See the UAL3746 flight status page for this flight to view local times or setup timezone preferences in your user account.

Time Position Orientation Groundspeed Altitude Reporting Facility
EDT Latitude Longitude Course Direction KTS MPH feet Rate Location/Type
Sat 01:27:27 PM 41.9833 -87.9333 90° East 204 235 2,100  Level Chicago TRACON
Sat 01:28:27 PM 42.0333 -87.9000 26° Northeast 244 281 4,100 2,000 Climbing Chicago TRACON
Sat 01:29:27 PM 42.0500 -87.8167 75° East 248 285 6,100 2,318 Climbing Chicago TRACON
Sat 01:30:00 PM 42.1775 -87.3177 66° East  Level FlightAware Approximate
Sat 01:31:00 PM 42.2277 -87.1669 66° East  Level FlightAware Approximate
Sat 01:31:23 PM 42.1119 -87.6261 66° East 287 330 10,900  Level Chicago Center
Sat 01:32:00 PM 42.2667 -87.0126 90° East  Level FlightAware Approximate
Sat 01:32:24 PM 42.1436 -87.5206 68° East 300 345 13,100  Level Chicago Center
Sat 01:33:26 PM 42.1794 -87.4003 68° East 339 390 14,100 1,355 Climbing Chicago Center
Sat 01:34:28 PM 42.2183 -87.2700 68° East 369 425 15,900 1,645 Climbing Chicago Center
Sat 01:35:30 PM 42.2564 -87.1386 69° East 376 433 17,500 1,597 Climbing Chicago Center
Sat 01:36:32 PM 42.2817 -86.9989 76° East 385 443 19,200 1,645 Climbing Chicago Center
Sat 01:37:34 PM 42.2881 -86.8186 87° East 400 460 20,900 1,597 Climbing Chicago Center
Sat 01:38:36 PM 42.2947 -86.6628 87° East 408 470 22,500 1,306 Climbing Chicago Center
Sat 01:39:38 PM 42.3014 -86.5050 87° East 418 481 23,600 1,161 Climbing Chicago Center
Sat 01:40:40 PM 42.3056 -86.3439 88° East 430 495 24,900 1,210 Climbing Chicago Center
Sat 01:41:42 PM 42.3122 -86.1811 87° East 436 502 26,100 1,016 Climbing Chicago Center
Sat 01:42:44 PM 42.3144 -86.0144 89° East 445 512 27,000 1,016 Climbing Chicago Center
Sat 01:43:46 PM 42.3119 -85.8094 91° East 458 527 28,200 1,113 Climbing Chicago Center
Sat 01:44:48 PM 42.3100 -85.6392 91° East 458 527 29,300 823 Climbing Chicago Center
Sat 01:45:50 PM 42.3075 -85.4619 91° East 471 542 29,900 585 Climbing Chicago Center
Sat 01:46:51 PM 42.3044 -85.2825 91° East 479 551 30,500 537 Climbing Chicago Center
Sat 01:47:53 PM 42.3019 -85.1025 91° East 482 555 31,000 242 Climbing Chicago Center
Sat 01:48:55 PM 42.2981 -84.9175 92° East 491 565 31,000  Level Chicago Center
Sat 01:49:57 PM 42.2928 -84.7031 92° East 482 555 31,000  Level Chicago Center
Sat 01:50:58 PM 42.2881 -84.5311 92° East 464 534 31,000  Level Chicago Center
Sat 01:52:00 PM 42.3031 -84.3611 83° East 457 526 31,000  Level Chicago Center
Sat 01:52:41 PM 42.3186 -84.2461 80° East 454 522 31,000  Level Cleveland Center
Sat 01:53:43 PM 42.3414 -84.0756 80° East 460 529 31,000  Level Cleveland Center
Sat 01:54:45 PM 42.3653 -83.9047 79° East 461 531 31,000  Level Cleveland Center
Sat 01:55:47 PM 42.3886 -83.7339 79° East 460 529 31,000  Level Cleveland Center
Sat 01:56:49 PM 42.4106 -83.5375 81° East 465 535 31,000  Level Cleveland Center
Sat 01:57:50 PM 42.4169 -83.3586 87° East 472 543 31,000  Level Cleveland Center
Sat 01:58:53 PM 42.4219 -83.1986 88° East 470 541 31,000  Level Cleveland Center
Sat 01:59:55 PM 42.4286 -82.9881 87° East 467 537 31,000  Level Cleveland Center
Sat 02:00:57 PM 42.4336 -82.8114 88° East 468 539 31,000  Level Cleveland Center
Sat 02:01:59 PM 42.4397 -82.6358 87° East 469 540 31,000  Level Cleveland Center
Sat 02:03:01 PM 42.4444 -82.4581 88° East 471 542 31,000  Level Cleveland Center
Sat 02:04:03 PM 42.4492 -82.2819 88° East 471 542 31,000  Level Cleveland Center
Sat 02:05:05 PM 42.4536 -82.1050 88° East 472 543 31,000  Level Cleveland Center
Sat 02:06:06 PM 42.4589 -81.8925 88° East 472 543 31,000  Level Cleveland Center
Sat 02:07:08 PM 42.4625 -81.7217 88° East 472 543 31,000  Level Cleveland Center
Sat 02:08:10 PM 42.4664 -81.5422 88° East 471 542 31,000  Level Cleveland Center
Sat 02:09:12 PM 42.4700 -81.3633 88° East 471 542 31,000  Level Cleveland Center
Sat 02:10:14 PM 42.4731 -81.1839 89° East 471 542 31,000  Level Cleveland Center
Sat 02:11:16 PM 42.4758 -81.0058 89° East 470 541 31,000  Level Cleveland Center
Sat 02:12:18 PM 42.4789 -80.7975 89° East 469 540 31,000  Level Cleveland Center
Sat 02:13:20 PM 42.4806 -80.6197 89° East 467 537 31,000  Level Cleveland Center
Sat 02:14:22 PM 42.4842 -80.4414 88° East 470 541 31,000  Level Cleveland Center
Sat 02:15:24 PM 42.4850 -80.2631 90° East 469 540 31,000  Level Cleveland Center
Sat 02:16:26 PM 42.4869 -80.0847 89° East 470 541 31,000  Level Cleveland Center
Sat 02:17:28 PM 42.4886 -79.8969 89° East 467 537 31,000  Level Cleveland Center
Sat 02:18:29 PM 42.4894 -79.7200 90° East 471 542 31,000  Level Cleveland Center
Sat 02:19:31 PM 42.4897 -79.5433 90° East 471 542 31,000  Level Cleveland Center
Sat 02:20:33 PM 42.4894 -79.3669 90° East 471 542 31,000  Level Cleveland Center
Sat 02:21:35 PM 42.4964 -79.1917 87° East 466 536 31,000  Level Cleveland Center
Sat 02:22:37 PM 42.5108 -78.9817 85° East 467 537 31,000  Level Cleveland Center
Sat 02:23:39 PM 42.5231 -78.8075 85° East 466 536 31,000  Level Cleveland Center
Sat 02:24:41 PM 42.5336 -78.6339 85° East 466 536 31,000  Level Cleveland Center
Sat 02:25:43 PM 42.5450 -78.4592 85° East 465 535 31,000  Level Cleveland Center
Sat 02:26:44 PM 42.5567 -78.2839 85° East 467 537 31,000  Level Cleveland Center
Sat 02:27:46 PM 42.5669 -78.1089 85° East 469 540 31,000  Level Cleveland Center
Sat 02:28:48 PM 42.5794 -77.8986 85° East 469 540 31,000  Level Cleveland Center
Sat 02:29:50 PM 42.5886 -77.7206 86° East 468 539 31,000  Level Cleveland Center
Sat 02:30:52 PM 42.6003 -77.5456 85° East 467 537 31,000  Level Cleveland Center
Sat 02:31:54 PM 42.6086 -77.3872 86° East 469 540 31,000  Level Cleveland Center
Sat 02:32:56 PM 42.6200 -77.1783 86° East 466 536 31,000  Level Cleveland Center
Sat 02:33:50 PM 42.6272 -77.0369 86° East 471 542 31,000  Level Boston Center
Sat 02:34:51 PM 42.6361 -76.8608 86° East 469 540 31,000  Level Boston Center
Sat 02:35:54 PM 42.6456 -76.6847 86° East 470 541 31,000  Level Boston Center
Sat 02:36:55 PM 42.6544 -76.5092 86° East 468 539 31,000  Level Boston Center
Sat 02:37:58 PM 42.6639 -76.2975 86° East 470 541 31,000  Level Boston Center
Sat 02:38:58 PM 42.6714 -76.1414 86° East 467 537 31,000  Level Boston Center
Sat 02:40:02 PM 42.6781 -75.9650 87° East 470 541 31,000  Level Boston Center
Sat 02:41:03 PM 42.6875 -75.7553 86° East 468 539 31,000  Level Boston Center
Sat 02:42:04 PM 42.6939 -75.5792 87° East 469 540 31,000 -194 Level Boston Center
Sat 02:43:07 PM 42.7003 -75.4039 87° East 470 541 30,600 -439 Descending Boston Center
Sat 02:44:07 PM 42.7058 -75.2317 87° East 463 533 30,100 -496 Descending Boston Center
Sat 02:45:08 PM 42.7125 -75.0522 87° East 479 551 29,600 -480 Descending Boston Center
Sat 02:46:12 PM 42.7175 -74.8756 88° East 474 545 29,100 -288 Descending Boston Center
Sat 02:47:13 PM 42.7239 -74.6644 88° East 469 540 29,000 -50 Descending Boston Center
Sat 02:48:13 PM 42.7294 -74.4892 87° East 467 537 29,000 -99 Level Boston Center
Sat 02:49:14 PM 42.7350 -74.3125 87° East 469 540 28,800 -1,008 Descending Boston Center
Sat 02:50:18 PM 42.7394 -74.1342 88° East 472 543 26,900 -1,984 Descending Boston Center
Sat 02:51:18 PM 42.7447 -73.9478 88° East 468 539 24,700 -1,438 Descending Boston Center
Sat 02:52:19 PM 42.7489 -73.7758 88° East 458 527 24,000 -624 Descending Boston Center
Sat 02:53:23 PM 42.7553 -73.6103 87° East 441 507 23,400 -1,016 Descending Boston Center
Sat 02:54:23 PM 42.7611 -73.4497 87° East 426 490 21,900 -1,488 Descending Boston Center
Sat 02:55:24 PM 42.7669 -73.2925 87° East 416 479 20,400 -1,438 Descending Boston Center
Sat 02:56:24 PM 42.7722 -73.1175 88° East 408 470 19,000 -677 Descending Boston Center
Sat 02:57:28 PM 42.7772 -72.9789 87° East 414 476 19,000 -435 Level Boston Center
Sat 02:58:28 PM 42.7814 -72.8189 88° East 418 481 18,100 -1,041 Descending Boston Center
Sat 02:59:29 PM 42.7856 -72.6619 88° East 414 476 16,900 -1,536 Descending Boston Center
Sat 03:00:33 PM 42.7906 -72.4794 88° East 404 465 14,900 -1,776 Descending Boston Center
Sat 03:01:34 PM 42.7944 -72.3308 88° East 395 455 13,200 -942 Descending Boston Center
Sat 03:02:34 PM 42.8039 -72.1744 85° East 389 448 13,000 -726 Descending Boston Center
Sat 03:03:38 PM 42.8147 -72.0394 84° East 365 420 11,700 -1,200 Descending Boston Center
Sat 03:04:39 PM 42.8239 -71.9139 84° East 339 390 10,500 -1,289 Descending Boston Center
Sat 03:05:39 PM 42.8194 -71.7975 93° East 292 336 9,100 -1,438 Descending Boston Center
Sat 03:06:40 PM 42.8111 -71.6942 96° East 280 322 7,600 -1,597 Descending Boston Center
Sat 03:07:43 PM 42.8017 -71.5961 97° East 261 300 5,800 -1,597 Descending Boston Center
Sat 03:08:44 PM 42.7942 -71.4953 96° East 249 287 4,300 -1,339 Descending Boston Center
Sat 03:09:44 PM 42.7967 -71.4136 88° East 225 259 3,100 -1,140 Descending Boston Center
Sat 03:10:45 PM 42.8369 -71.3767 34° Northeast 184 212 2,000 -919 Descending Boston Center
Sat 03:11:48 PM 42.8781 -71.4008 337° Northwest 148 170 1,200 -774 Descending Boston Center
Sat 03:12:49 PM 42.9139 -71.4231 336° Northwest 143 165 400 -397 Descending Boston Center
Sat 03:13:49 PM 42.9439 -71.4422 335° Northwest 142 163 400  Level Boston Center

Login

Don't have an account? Register now (free) for customized features, flight alerts, and more!